createdAt,value
2022-11-05T00:01:32.662Z,100377.13
2022-11-05T00:04:15.051Z,100381.44
2022-11-05T00:06:57.671Z,100389.63
2022-11-05T00:09:33.678Z,100380.81
2022-11-05T00:12:18.136Z,100393.94
2022-11-05T00:15:03.413Z,100393.09
2022-11-05T00:17:33.597Z,100395.59
2022-11-05T00:20:03.454Z,100402.75
2022-11-05T00:22:45.717Z,100402.94
2022-11-05T00:25:22.159Z,100398.44
2022-11-05T00:27:53.307Z,100409.44
2022-11-05T00:30:28.589Z,100406.94
2022-11-05T00:33:03.866Z,100407.78
2022-11-05T00:35:33.628Z,100411.59
2022-11-05T00:38:03.390Z,100408.13
2022-11-05T00:40:33.285Z,100414.44
2022-11-05T00:43:15.553Z,100419.13
2022-11-05T00:45:47.941Z,100417.47
2022-11-05T00:48:30.151Z,100423.94
2022-11-05T00:50:59.940Z,100420.28
2022-11-05T00:53:29.938Z,100425.59
2022-11-05T00:56:00.473Z,100426.59
2022-11-05T00:58:31.151Z,100422.47
2022-11-05T01:01:05.513Z,100428.44
2022-11-05T01:03:37.926Z,100440.75
2022-11-05T01:06:13.030Z,100439.91
2022-11-05T01:08:44.236Z,100445.22
2022-11-05T01:11:33.526Z,100440.75
2022-11-05T01:14:04.163Z,100446.88
2022-11-05T01:16:37.581Z,100445.22
2022-11-05T01:19:11.244Z,100447.25
2022-11-05T01:21:41.091Z,100452.38
2022-11-05T01:24:13.394Z,100452.75
2022-11-05T01:26:43.101Z,100467.53
2022-11-05T01:29:13.869Z,100457.88
2022-11-05T01:31:46.383Z,100455.22
2022-11-05T01:34:16.163Z,100458.25
2022-11-05T01:36:45.964Z,100459.06
2022-11-05T01:39:15.958Z,100464.41
2022-11-05T01:41:45.726Z,100461.91
2022-11-05T01:44:47.087Z,100466.59
2022-11-05T01:47:32.711Z,100469.25
2022-11-05T01:50:06.509Z,100465.59
2022-11-05T01:52:38.567Z,100467.25
2022-11-05T01:55:10.158Z,100467.25
2022-11-05T01:57:40.692Z,100474.22
2022-11-05T02:00:12.208Z,100474.22
2022-11-05T02:02:47.433Z,100476.22
2022-11-05T02:05:18.486Z,100478.88
2022-11-05T02:07:49.902Z,100481.53
2022-11-05T02:10:20.666Z,100481.38
2022-11-05T02:12:51.106Z,100483.19
2022-11-05T02:15:28.466Z,100488.53
2022-11-05T02:18:15.786Z,100496.84
2022-11-05T02:20:52.697Z,100502.34
2022-11-05T02:23:47.320Z,100492.72
2022-11-05T02:26:44.484Z,100505.19
2022-11-05T02:29:45.513Z,100504.19
2022-11-05T02:32:30.180Z,100501.06
2022-11-05T02:35:10.255Z,100511.69
2022-11-05T02:37:43.526Z,100513.53
2022-11-05T02:40:19.252Z,100519.69
2022-11-05T02:42:59.310Z,100523.34
2022-11-05T02:45:41.317Z,100525.53
2022-11-05T02:48:22.358Z,100530.03
2022-11-05T02:50:56.640Z,100525.72
2022-11-05T02:53:36.999Z,100525.88
2022-11-05T02:56:13.073Z,100530.38
2022-11-05T02:58:42.832Z,100536.88
2022-11-05T03:01:14.415Z,100535.72
2022-11-05T03:03:50.101Z,100540.22
2022-11-05T03:06:43.315Z,100538.56
2022-11-05T03:09:30.903Z,100541.88
2022-11-05T03:12:08.503Z,100547.53
2022-11-05T03:14:47.403Z,100554.69
2022-11-05T03:17:27.301Z,100568.81
2022-11-05T03:20:10.160Z,100560.00
2022-11-05T03:22:50.337Z,100564.50
2022-11-05T03:25:24.564Z,100574.78
2022-11-05T03:28:00.336Z,100580.94
2022-11-05T03:30:30.202Z,100589.75
2022-11-05T03:33:03.609Z,100585.25
2022-11-05T03:35:40.939Z,100584.41
2022-11-05T03:38:16.014Z,100587.91
2022-11-05T03:40:50.289Z,100584.78
2022-11-05T03:43:22.947Z,100583.28
2022-11-05T03:45:57.229Z,100593.09
2022-11-05T03:48:30.733Z,100594.09
2022-11-05T03:51:09.382Z,100598.75
2022-11-05T03:53:45.640Z,100600.41
2022-11-05T03:56:21.876Z,100605.75
2022-11-05T03:58:58.458Z,100603.25
2022-11-05T04:01:29.777Z,100609.75
2022-11-05T04:03:59.612Z,100599.47
2022-11-05T04:06:44.387Z,100609.28
2022-11-05T04:09:35.000Z,100624.41
2022-11-05T04:12:17.174Z,100625.56
2022-11-05T04:14:47.006Z,100619.41
2022-11-05T04:17:14.251Z,100629.22
2022-11-05T04:19:58.667Z,100627.56
2022-11-05T04:22:45.373Z,100632.22
2022-11-05T04:25:16.377Z,100633.06
2022-11-05T04:27:46.697Z,100640.38
2022-11-05T04:30:21.848Z,100642.03
2022-11-05T04:33:03.538Z,100642.22
2022-11-05T04:35:34.847Z,100648.34
2022-11-05T04:38:08.357Z,100652.00
2022-11-05T04:40:38.824Z,100647.88
2022-11-05T04:43:14.624Z,100653.00
2022-11-05T04:45:45.502Z,100652.00
2022-11-05T04:48:15.671Z,100653.00
2022-11-05T04:50:45.446Z,100651.34
2022-11-05T04:53:17.781Z,100657.00
2022-11-05T04:55:47.523Z,100662.50
2022-11-05T04:58:17.300Z,100660.69
2022-11-05T05:00:47.121Z,100660.84
2022-11-05T05:03:16.884Z,100659.03
2022-11-05T05:05:46.595Z,100657.38
2022-11-05T05:08:18.921Z,100655.84
2022-11-05T05:10:48.672Z,100660.16
2022-11-05T05:13:18.481Z,100657.84
2022-11-05T05:15:48.283Z,100666.81
2022-11-05T05:18:18.059Z,100664.16
2022-11-05T05:21:00.277Z,100669.47
2022-11-05T05:23:32.667Z,100668.66
2022-11-05T05:26:02.660Z,100668.66
2022-11-05T05:28:32.413Z,100670.66
2022-11-05T05:31:02.832Z,100681.28
2022-11-05T05:33:32.672Z,100674.13
2022-11-05T05:36:06.996Z,100688.41
2022-11-05T05:38:42.632Z,100692.91
2022-11-05T05:41:12.364Z,100686.75
2022-11-05T05:43:42.176Z,100691.25
2022-11-05T05:46:14.747Z,100702.88
2022-11-05T05:48:45.419Z,100710.03
2022-11-05T05:51:15.148Z,100717.34
2022-11-05T05:53:48.024Z,100718.50
2022-11-05T05:56:20.581Z,100722.16
2022-11-05T05:58:50.922Z,100717.84
2022-11-05T06:01:21.348Z,100727.28
2022-11-05T06:03:51.996Z,100735.28
2022-11-05T06:06:22.783Z,100730.94
2022-11-05T06:08:55.174Z,100744.41
2022-11-05T06:11:25.052Z,100739.94
2022-11-05T06:13:54.987Z,100744.75
2022-11-05T06:16:24.722Z,100750.22
2022-11-05T06:18:54.714Z,100756.72
2022-11-05T06:21:24.504Z,100758.53
2022-11-05T06:23:56.859Z,100770.16
2022-11-05T06:26:26.643Z,100766.50
2022-11-05T06:28:56.415Z,100771.16
2022-11-05T06:31:26.477Z,100769.50
2022-11-05T06:33:56.261Z,100774.63
2022-11-05T06:36:26.056Z,100777.28
2022-11-05T06:38:58.540Z,100781.78
2022-11-05T06:41:28.398Z,100791.59
2022-11-05T06:43:58.216Z,100794.25
2022-11-05T06:46:28.042Z,100803.88
2022-11-05T06:48:57.853Z,100810.19
2022-11-05T06:51:27.652Z,100812.84
2022-11-05T06:54:00.459Z,100816.16
2022-11-05T06:56:30.326Z,100820.47
2022-11-05T06:59:00.112Z,100826.63
2022-11-05T07:01:29.980Z,100823.78
2022-11-05T07:03:59.887Z,100824.47
2022-11-05T07:06:33.082Z,100832.94
2022-11-05T07:09:09.154Z,100832.75
2022-11-05T07:11:38.949Z,100837.09
2022-11-05T07:14:08.721Z,100841.56
2022-11-05T07:16:38.580Z,100844.06
2022-11-05T07:19:08.452Z,100844.72
2022-11-05T07:21:38.187Z,100840.41
2022-11-05T07:24:11.452Z,100844.56
2022-11-05T07:26:41.244Z,100846.88
2022-11-05T07:29:11.094Z,100841.22
2022-11-05T07:31:41.030Z,100842.59
2022-11-05T07:34:10.849Z,100851.06
2022-11-05T07:36:41.480Z,100852.72
2022-11-05T07:39:13.875Z,100862.19
2022-11-05T07:41:43.630Z,100862.69
2022-11-05T07:44:14.530Z,100867.66
2022-11-05T07:46:44.417Z,100873.16
2022-11-05T07:49:14.262Z,100874.97
2022-11-05T07:51:44.079Z,100862.19
2022-11-05T07:54:16.457Z,100865.63
2022-11-05T07:56:46.221Z,100864.81
2022-11-05T07:59:16.073Z,100869.69
2022-11-05T08:01:45.985Z,100866.81
2022-11-05T08:04:16.102Z,100871.06
2022-11-05T08:06:46.051Z,100872.03
2022-11-05T08:09:18.474Z,100872.88
2022-11-05T08:11:51.143Z,100879.69
2022-11-05T08:14:22.730Z,100881.66
2022-11-05T08:16:52.500Z,100891.28
2022-11-05T08:19:22.380Z,100895.19
2022-11-05T08:21:52.481Z,100898.09
2022-11-05T08:24:24.888Z,100903.50
2022-11-05T08:26:55.957Z,100908.38
2022-11-05T08:29:25.860Z,100919.19
2022-11-05T08:31:55.624Z,100917.28
2022-11-05T08:34:25.568Z,100914.53
2022-11-05T08:36:55.298Z,100918.88
2022-11-05T08:39:27.697Z,100919.34
2022-11-05T08:41:57.558Z,100920.84
2022-11-05T08:44:27.498Z,100922.97
2022-11-05T08:46:57.321Z,100924.16
2022-11-05T08:49:27.101Z,100928.53
2022-11-05T08:51:56.903Z,100927.91
2022-11-05T08:54:29.313Z,100933.19
2022-11-05T08:56:59.128Z,100930.66
2022-11-05T08:59:29.955Z,100932.16
2022-11-05T09:02:00.030Z,100930.25
2022-11-05T09:04:29.971Z,100939.38
2022-11-05T09:06:59.747Z,100945.72
2022-11-05T09:09:32.818Z,100945.09
2022-11-05T09:12:17.917Z,100940.09
2022-11-05T09:14:47.775Z,100953.56
2022-11-05T09:17:19.924Z,100955.06
2022-11-05T09:19:51.298Z,100960.41
2022-11-05T09:22:21.097Z,100953.44
2022-11-05T09:24:53.556Z,100966.34
2022-11-05T09:27:23.355Z,100971.13
2022-11-05T09:29:53.115Z,100970.38
2022-11-05T09:32:23.309Z,100964.75
2022-11-05T09:34:53.200Z,100963.66
2022-11-05T09:37:22.951Z,100975.16
2022-11-05T09:39:55.499Z,100975.88
2022-11-05T09:42:32.062Z,100972.84
2022-11-05T09:45:06.268Z,100975.41
2022-11-05T09:47:39.475Z,100982.66
2022-11-05T09:50:12.386Z,100983.75
2022-11-05T09:52:42.200Z,100982.41
2022-11-05T09:55:24.244Z,100983.66
2022-11-05T09:57:59.581Z,100991.06
2022-11-05T10:00:33.753Z,100985.84
2022-11-05T10:03:10.580Z,100985.00
2022-11-05T10:05:42.993Z,100991.75
2022-11-05T10:08:18.037Z,100993.19
2022-11-05T10:10:53.261Z,101001.47
2022-11-05T10:13:28.180Z,100994.09
2022-11-05T10:16:04.098Z,100999.28
2022-11-05T10:18:37.362Z,100999.78
2022-11-05T10:21:08.476Z,101002.19
2022-11-05T10:23:39.185Z,101000.97
2022-11-05T10:26:16.523Z,101011.25
2022-11-05T10:28:46.369Z,101011.19
2022-11-05T10:31:17.841Z,101015.56
2022-11-05T10:33:51.903Z,101014.47
2022-11-05T10:36:26.942Z,101012.19
2022-11-05T10:38:59.839Z,101013.03
2022-11-05T10:41:45.382Z,101016.22
2022-11-05T10:44:28.868Z,101012.75
2022-11-05T10:47:12.517Z,101022.41
2022-11-05T10:49:54.311Z,101033.47
2022-11-05T10:52:28.303Z,101032.56
2022-11-05T10:55:03.625Z,101037.91
2022-11-05T10:57:38.361Z,101033.53
2022-11-05T11:00:28.336Z,101039.22
2022-11-05T11:03:01.148Z,101029.47
2022-11-05T11:05:33.304Z,101035.94
2022-11-05T11:08:06.463Z,101047.59
2022-11-05T11:10:43.896Z,101035.97
2022-11-05T11:13:25.059Z,101036.69
2022-11-05T11:15:55.281Z,101033.28
2022-11-05T11:18:34.706Z,101032.53
2022-11-05T11:21:15.275Z,101032.63
2022-11-05T11:23:46.739Z,101036.69
2022-11-05T11:26:16.777Z,101036.13
2022-11-05T11:28:51.394Z,101029.19
2022-11-05T11:31:26.209Z,101024.91
2022-11-05T11:34:01.807Z,101033.69
2022-11-05T11:36:37.714Z,101033.06
2022-11-05T11:39:09.801Z,101042.22
2022-11-05T11:41:42.559Z,101041.53
2022-11-05T11:44:19.244Z,101042.59
2022-11-05T11:46:52.101Z,101039.28
2022-11-05T11:49:43.408Z,101038.31
2022-11-05T11:52:16.623Z,101033.06
2022-11-05T11:54:46.429Z,101035.09
2022-11-05T11:57:24.482Z,101034.13
2022-11-05T12:00:08.805Z,101032.09
2022-11-05T12:03:09.656Z,101027.41
2022-11-05T12:05:47.026Z,101029.63
2022-11-05T12:08:33.413Z,101033.72
2022-11-05T12:11:08.718Z,101036.13
2022-11-05T12:13:54.061Z,101030.72
2022-11-05T12:16:36.600Z,101037.94
2022-11-05T12:19:19.180Z,101028.31
2022-11-05T12:21:56.939Z,101029.69
2022-11-05T12:24:50.716Z,101033.88
2022-11-05T12:27:30.797Z,101032.41
2022-11-05T12:30:05.732Z,101030.25
2022-11-05T12:33:05.890Z,101028.53
2022-11-05T12:35:48.882Z,101035.66
2022-11-05T12:38:34.327Z,101024.34
2022-11-05T12:41:14.735Z,101036.22
2022-11-05T12:43:58.437Z,101034.75
2022-11-05T12:46:37.377Z,101035.25
2022-11-05T12:49:32.285Z,101034.91
2022-11-05T12:52:13.354Z,101032.75
2022-11-05T12:55:01.166Z,101026.66
2022-11-05T12:57:35.585Z,101030.59
2022-11-05T13:00:10.685Z,101034.53
2022-11-05T13:02:45.539Z,101027.34
2022-11-05T13:05:23.080Z,101039.84
2022-11-05T13:08:00.753Z,101035.69
2022-11-05T13:10:36.071Z,101033.97
2022-11-05T13:13:14.178Z,101038.31
2022-11-05T13:15:52.237Z,101025.16
2022-11-05T13:18:28.274Z,101033.59
2022-11-05T13:21:05.016Z,101039.44
2022-11-05T13:23:42.653Z,101037.75
2022-11-05T13:26:19.836Z,101041.00
2022-11-05T13:28:56.705Z,101042.75
2022-11-05T13:31:32.993Z,101053.09
2022-11-05T13:34:08.996Z,101054.41
2022-11-05T13:37:03.014Z,101057.25
2022-11-05T13:39:38.280Z,101047.06
2022-11-05T13:42:42.729Z,101055.19
2022-11-05T13:45:38.580Z,101058.47
2022-11-05T13:48:44.315Z,101069.38
2022-11-05T13:51:37.685Z,101071.88
2022-11-05T13:54:44.887Z,101073.69
2022-11-05T13:57:45.400Z,101077.56
2022-11-05T14:00:20.404Z,101069.84
2022-11-05T14:02:55.070Z,101078.13
2022-11-05T14:05:29.997Z,101079.13
2022-11-05T14:08:01.956Z,101073.56
2022-11-05T14:10:40.607Z,101075.41
2022-11-05T14:13:22.505Z,101078.72
2022-11-05T14:15:59.517Z,101085.22
2022-11-05T14:18:41.910Z,101075.84
2022-11-05T14:21:48.951Z,101076.78
2022-11-05T14:24:29.482Z,101078.06
2022-11-05T14:27:44.173Z,101083.75
2022-11-05T14:30:45.565Z,101086.53
2022-11-05T14:33:33.067Z,101087.47
2022-11-05T14:36:34.757Z,101091.06
2022-11-05T14:39:23.384Z,101091.38
2022-11-05T14:42:05.747Z,101093.00
2022-11-05T14:44:39.233Z,101089.47
2022-11-05T14:47:22.828Z,101092.75
2022-11-05T14:49:56.722Z,101096.72
2022-11-05T14:52:27.052Z,101098.50
2022-11-05T14:54:59.759Z,101104.44
2022-11-05T14:57:59.647Z,101105.00
2022-11-05T15:00:50.328Z,101106.22
2022-11-05T15:03:39.752Z,101106.59
2022-11-05T15:06:28.472Z,101115.19
2022-11-05T15:09:16.149Z,101117.63
2022-11-05T15:11:52.581Z,101111.81
2022-11-05T15:14:30.689Z,101114.69
2022-11-05T15:17:11.630Z,101108.00
2022-11-05T15:19:43.969Z,101104.69
2022-11-05T15:22:25.801Z,101106.28
2022-11-05T15:24:55.881Z,101110.34
2022-11-05T15:27:40.276Z,101115.63
2022-11-05T15:30:21.083Z,101115.38
2022-11-05T15:32:54.111Z,101118.78
2022-11-05T15:35:27.106Z,101115.81
2022-11-05T15:38:02.126Z,101120.25
2022-11-05T15:40:35.538Z,101123.88
2022-11-05T15:43:14.516Z,101114.69
2022-11-05T15:45:44.606Z,101115.06
2022-11-05T15:48:22.567Z,101122.81
2022-11-05T15:50:52.637Z,101121.34
2022-11-05T15:56:28.034Z,101125.28
2022-11-05T15:59:01.817Z,101121.31
2022-11-05T16:01:33.544Z,101122.88
2022-11-05T16:04:14.173Z,101124.44
2022-11-05T16:06:46.370Z,101123.97
2022-11-05T16:09:24.746Z,101124.72
2022-11-05T16:12:11.832Z,101122.22
2022-11-05T16:14:42.314Z,101123.41
2022-11-05T16:17:23.261Z,101130.28
2022-11-05T16:19:56.607Z,101131.66
2022-11-05T16:22:26.653Z,101126.84
2022-11-05T16:24:56.482Z,101137.91
2022-11-05T16:27:26.294Z,101132.75
2022-11-05T16:29:58.634Z,101134.13
2022-11-05T16:32:31.549Z,101133.81
2022-11-05T16:35:06.206Z,101131.03
2022-11-05T16:37:46.344Z,101137.56
2022-11-05T16:40:21.390Z,101135.41
2022-11-05T16:42:52.080Z,101139.09
2022-11-05T16:45:24.372Z,101148.28
2022-11-05T16:47:54.780Z,101154.66
2022-11-05T16:50:33.141Z,101151.28
2022-11-05T16:53:02.936Z,101150.47
2022-11-05T16:55:34.365Z,101165.00
2022-11-05T16:58:04.214Z,101152.00
2022-11-05T17:00:34.099Z,101164.53
2022-11-05T17:03:04.242Z,101165.53
2022-11-05T17:05:36.721Z,101176.38
2022-11-05T17:08:06.574Z,101186.41
2022-11-05T17:10:36.515Z,101183.09
2022-11-05T17:13:06.406Z,101186.75
2022-11-05T17:15:37.649Z,101190.44
2022-11-05T17:18:08.236Z,101189.13
2022-11-05T17:20:42.719Z,101196.84
2022-11-05T17:23:14.679Z,101199.16
2022-11-05T17:25:48.433Z,101202.53
2022-11-05T17:28:18.999Z,101198.56
2022-11-05T17:30:52.873Z,101206.75
2022-11-05T17:33:24.130Z,101207.09
2022-11-05T17:35:56.872Z,101209.44
2022-11-05T17:38:28.219Z,101217.31
2022-11-05T17:40:57.997Z,101196.00
2022-11-05T17:43:27.932Z,101194.00
2022-11-05T17:46:04.064Z,101202.69
2022-11-05T17:48:34.386Z,101215.69
2022-11-05T17:51:07.696Z,101213.69
2022-11-05T17:53:37.528Z,101217.72
2022-11-05T17:56:11.257Z,101222.03
2022-11-05T17:58:41.839Z,101224.53
2022-11-05T18:01:27.112Z,101228.69
2022-11-05T18:03:57.020Z,101224.38
2022-11-05T18:06:29.483Z,101230.38
2022-11-05T18:08:59.707Z,101234.72
2022-11-05T18:11:29.519Z,101234.06
2022-11-05T18:13:59.337Z,101236.22
2022-11-05T18:16:29.462Z,101233.56
2022-11-05T18:18:59.283Z,101235.41
2022-11-05T18:21:31.718Z,101237.06
2022-11-05T18:24:01.518Z,101236.06
2022-11-05T18:26:31.309Z,101231.72
2022-11-05T18:29:03.086Z,101229.41
2022-11-05T18:31:33.230Z,101233.72
2022-11-05T18:34:03.624Z,101226.91
2022-11-05T18:36:36.129Z,101223.75
2022-11-05T18:39:07.452Z,101223.09
2022-11-05T18:41:37.298Z,101223.44
2022-11-05T18:44:07.734Z,101216.69
2022-11-05T18:46:57.062Z,101209.88
2022-11-05T18:49:27.865Z,101221.06
2022-11-05T18:52:00.255Z,101213.91
2022-11-05T18:54:30.083Z,101213.41
2022-11-05T18:56:59.915Z,101214.56
2022-11-05T18:59:37.711Z,101229.06
2022-11-05T19:02:08.703Z,101220.06
2022-11-05T19:04:39.360Z,101226.03
2022-11-05T19:07:14.006Z,101235.19
2022-11-05T19:09:43.938Z,101232.03
2022-11-05T19:12:13.808Z,101233.03
2022-11-05T19:14:44.693Z,101233.88
2022-11-05T19:17:14.641Z,101247.34
2022-11-05T19:19:44.715Z,101242.34
2022-11-05T19:22:17.179Z,101236.38
2022-11-05T19:24:47.045Z,101238.38
2022-11-05T19:27:16.844Z,101246.69
2022-11-05T19:29:46.817Z,101246.84
2022-11-05T19:32:16.880Z,101250.50
2022-11-05T19:34:46.795Z,101248.69
2022-11-05T19:37:19.953Z,101236.69
2022-11-05T19:39:49.790Z,101244.69
2022-11-05T19:42:19.687Z,101241.34
2022-11-05T19:44:49.604Z,101247.84
2022-11-05T19:47:19.657Z,101248.47
2022-11-05T19:49:49.600Z,101250.78
2022-11-05T19:52:21.953Z,101257.75
2022-11-05T19:54:52.004Z,101251.09
2022-11-05T19:57:22.099Z,101247.59
2022-11-05T19:59:54.871Z,101256.91
2022-11-05T20:02:24.934Z,101247.75
2022-11-05T20:04:54.959Z,101248.25
2022-11-05T20:07:27.456Z,101247.91
2022-11-05T20:09:57.426Z,101246.91
2022-11-05T20:12:27.466Z,101241.41
2022-11-05T20:14:57.415Z,101237.22
2022-11-05T20:17:27.352Z,101241.47
2022-11-05T20:19:57.305Z,101242.44
2022-11-05T20:22:29.823Z,101246.91
2022-11-05T20:24:59.633Z,101251.72
2022-11-05T20:27:29.513Z,101251.72
2022-11-05T20:29:59.272Z,101259.03
2022-11-05T20:32:29.029Z,101259.50
2022-11-05T20:34:58.989Z,101267.63
2022-11-05T20:37:31.373Z,101266.47
2022-11-05T20:40:01.354Z,101269.16
2022-11-05T20:42:31.176Z,101279.41
2022-11-05T20:45:01.025Z,101265.94
2022-11-05T20:47:31.512Z,101271.97
2022-11-05T20:50:02.124Z,101277.28
2022-11-05T20:52:34.530Z,101273.09
2022-11-05T20:55:04.524Z,101279.41
2022-11-05T20:57:34.378Z,101277.72
2022-11-05T21:00:07.225Z,101274.56
2022-11-05T21:02:37.885Z,101277.22
2022-11-05T21:05:09.777Z,101269.56
2022-11-05T21:07:42.476Z,101267.06
2022-11-05T21:10:12.687Z,101265.22
2022-11-05T21:12:45.232Z,101272.53
2022-11-05T21:15:15.248Z,101279.81
2022-11-05T21:17:45.355Z,101276.50
2022-11-05T21:20:15.795Z,101279.81
2022-11-05T21:22:48.440Z,101274.81
2022-11-05T21:25:18.470Z,101274.97
2022-11-05T21:27:48.357Z,101276.81
2022-11-05T21:30:18.629Z,101278.94
2022-11-05T21:32:48.705Z,101294.38
2022-11-05T21:35:18.941Z,101295.53
2022-11-05T21:37:51.346Z,101296.00
2022-11-05T21:40:21.120Z,101290.69
2022-11-05T21:42:51.094Z,101286.94
2022-11-05T21:45:23.959Z,101283.75
2022-11-05T21:47:53.857Z,101278.59
2022-11-05T21:50:45.002Z,101276.94
2022-11-05T21:53:32.400Z,101266.97
2022-11-05T21:56:14.746Z,101273.97
2022-11-05T21:58:56.959Z,101267.28
2022-11-05T22:01:26.775Z,101278.59
2022-11-05T22:04:01.715Z,101273.13
2022-11-05T22:06:35.129Z,101267.81
2022-11-05T22:09:07.655Z,101283.41
2022-11-05T22:11:39.048Z,101276.56
2022-11-05T22:14:08.895Z,101278.22
2022-11-05T22:16:38.853Z,101279.22
2022-11-05T22:19:09.306Z,101269.59
2022-11-05T22:21:39.135Z,101272.25
2022-11-05T22:24:12.530Z,101268.75
2022-11-05T22:26:43.282Z,101272.84
2022-11-05T22:29:13.795Z,101270.50
2022-11-05T22:31:43.665Z,101268.00
2022-11-05T22:34:14.294Z,101274.94
2022-11-05T22:36:44.235Z,101274.69
2022-11-05T22:39:16.756Z,101268.00
2022-11-05T22:41:46.947Z,101274.31
2022-11-05T22:44:17.356Z,101265.97
2022-11-05T22:46:47.428Z,101274.63
2022-11-05T22:49:17.305Z,101269.31
2022-11-05T22:51:48.158Z,101271.06
2022-11-05T22:54:20.624Z,101270.50
2022-11-05T22:56:50.561Z,101271.09
2022-11-05T22:59:20.454Z,101270.63
2022-11-05T23:01:50.764Z,101276.53
2022-11-05T23:04:20.744Z,101278.50
2022-11-05T23:07:02.958Z,101277.13
2022-11-05T23:09:49.963Z,101283.28
2022-11-05T23:12:26.181Z,101277.97
2022-11-05T23:14:57.017Z,101281.31
2022-11-05T23:17:39.843Z,101277.13
2022-11-05T23:20:27.261Z,101271.38
2022-11-05T23:23:09.566Z,101269.63
2022-11-05T23:25:42.016Z,101266.44
2022-11-05T23:28:14.146Z,101279.88
2022-11-05T23:30:59.340Z,101261.06
2022-11-05T23:33:29.152Z,101280.28
2022-11-05T23:36:11.415Z,101273.03
2022-11-05T23:38:41.398Z,101268.53
2022-11-05T23:41:26.378Z,101275.00
2022-11-05T23:44:08.597Z,101270.00
2022-11-05T23:46:50.886Z,101281.56
2022-11-05T23:49:20.760Z,101272.34
2022-11-05T23:51:51.638Z,101265.75
2022-11-05T23:54:22.019Z,101260.28
2022-11-05T23:56:54.413Z,101261.28
2022-11-05T23:59:24.410Z,101260.91
